sensor_id;sensor_type;location;lat;lon;timestamp;P1;durP1;ratioP1;P2;durP2;ratioP2
41966;SDS011;27656;53.068;8.818;2022-09-01T00:01:35;2.60;;;1.67;;
41966;SDS011;27656;53.068;8.818;2022-09-01T00:04:04;2.13;;;1.20;;
41966;SDS011;27656;53.068;8.818;2022-09-01T00:06:32;2.80;;;1.60;;
41966;SDS011;27656;53.068;8.818;2022-09-01T00:09:00;2.23;;;1.20;;
41966;SDS011;27656;53.068;8.818;2022-09-01T00:11:30;2.13;;;1.10;;
41966;SDS011;27656;53.068;8.818;2022-09-01T00:13:57;7.00;;;1.30;;
41966;SDS011;27656;53.068;8.818;2022-09-01T00:16:27;1.30;;;1.10;;
41966;SDS011;27656;53.068;8.818;2022-09-01T00:18:55;2.30;;;1.30;;
41966;SDS011;27656;53.068;8.818;2022-09-01T00:21:26;2.10;;;1.10;;
41966;SDS011;27656;53.068;8.818;2022-09-01T00:23:55;2.00;;;1.27;;
41966;SDS011;27656;53.068;8.818;2022-09-01T00:26:22;1.60;;;1.20;;
41966;SDS011;27656;53.068;8.818;2022-09-01T00:28:48;5.13;;;1.27;;
41966;SDS011;27656;53.068;8.818;2022-09-01T00:31:16;1.60;;;1.30;;
41966;SDS011;27656;53.068;8.818;2022-09-01T00:33:45;2.67;;;1.20;;
41966;SDS011;27656;53.068;8.818;2022-09-01T00:36:13;4.37;;;1.10;;
41966;SDS011;27656;53.068;8.818;2022-09-01T00:38:40;2.07;;;1.30;;
41966;SDS011;27656;53.068;8.818;2022-09-01T00:41:06;5.17;;;1.17;;
41966;SDS011;27656;53.068;8.818;2022-09-01T00:43:52;1.40;;;1.30;;
41966;SDS011;27656;53.068;8.818;2022-09-01T00:46:25;3.13;;;1.30;;
41966;SDS011;27656;53.068;8.818;2022-09-01T00:48:55;2.20;;;1.23;;
41966;SDS011;27656;53.068;8.818;2022-09-01T00:51:25;2.13;;;1.10;;
41966;SDS011;27656;53.068;8.818;2022-09-01T00:53:52;4.63;;;1.30;;
41966;SDS011;27656;53.068;8.818;2022-09-01T00:56:21;4.03;;;1.27;;
41966;SDS011;27656;53.068;8.818;2022-09-01T00:58:48;2.03;;;1.13;;
41966;SDS011;27656;53.068;8.818;2022-09-01T01:01:16;4.17;;;1.30;;
41966;SDS011;27656;53.068;8.818;2022-09-01T01:03:43;2.37;;;1.30;;
41966;SDS011;27656;53.068;8.818;2022-09-01T01:06:12;1.87;;;1.10;;
41966;SDS011;27656;53.068;8.818;2022-09-01T01:08:44;1.67;;;1.03;;
41966;SDS011;27656;53.068;8.818;2022-09-01T01:11:23;4.43;;;1.30;;
41966;SDS011;27656;53.068;8.818;2022-09-01T01:13:53;1.97;;;1.00;;
41966;SDS011;27656;53.068;8.818;2022-09-01T01:16:23;1.73;;;1.10;;
41966;SDS011;27656;53.068;8.818;2022-09-01T01:18:50;2.20;;;1.30;;
41966;SDS011;27656;53.068;8.818;2022-09-01T01:21:19;1.13;;;1.00;;
41966;SDS011;27656;53.068;8.818;2022-09-01T01:26:32;1.97;;;1.10;;
41966;SDS011;27656;53.068;8.818;2022-09-01T01:28:59;3.33;;;1.20;;
41966;SDS011;27656;53.068;8.818;2022-09-01T01:31:27;1.90;;;1.33;;
41966;SDS011;27656;53.068;8.818;2022-09-01T01:33:54;5.13;;;1.30;;
41966;SDS011;27656;53.068;8.818;2022-09-01T01:36:30;2.57;;;1.00;;
41966;SDS011;27656;53.068;8.818;2022-09-01T01:39:11;2.10;;;1.03;;
41966;SDS011;27656;53.068;8.818;2022-09-01T01:41:40;2.60;;;1.20;;
41966;SDS011;27656;53.068;8.818;2022-09-01T01:44:11;5.80;;;1.30;;
41966;SDS011;27656;53.068;8.818;2022-09-01T01:46:40;3.37;;;1.00;;
41966;SDS011;27656;53.068;8.818;2022-09-01T01:49:09;4.60;;;1.07;;
41966;SDS011;27656;53.068;8.818;2022-09-01T01:51:38;2.13;;;1.40;;
41966;SDS011;27656;53.068;8.818;2022-09-01T01:54:06;1.70;;;1.40;;
41966;SDS011;27656;53.068;8.818;2022-09-01T01:56:33;3.57;;;1.33;;
41966;SDS011;27656;53.068;8.818;2022-09-01T01:59:03;2.23;;;1.40;;
41966;SDS011;27656;53.068;8.818;2022-09-01T02:01:31;1.43;;;1.13;;
41966;SDS011;27656;53.068;8.818;2022-09-01T02:03:59;3.17;;;1.20;;
41966;SDS011;27656;53.068;8.818;2022-09-01T02:06:26;4.50;;;1.30;;
41966;SDS011;27656;53.068;8.818;2022-09-01T02:08:54;1.97;;;1.50;;
41966;SDS011;27656;53.068;8.818;2022-09-01T02:11:26;1.50;;;1.10;;
41966;SDS011;27656;53.068;8.818;2022-09-01T02:13:53;3.40;;;1.27;;
41966;SDS011;27656;53.068;8.818;2022-09-01T02:16:23;2.17;;;1.20;;
41966;SDS011;27656;53.068;8.818;2022-09-01T02:18:51;2.13;;;1.23;;
41966;SDS011;27656;53.068;8.818;2022-09-01T02:21:19;1.70;;;1.40;;
41966;SDS011;27656;53.068;8.818;2022-09-01T02:23:48;2.73;;;1.43;;
41966;SDS011;27656;53.068;8.818;2022-09-01T02:26:40;3.67;;;1.50;;
41966;SDS011;27656;53.068;8.818;2022-09-01T02:29:11;4.70;;;1.50;;
41966;SDS011;27656;53.068;8.818;2022-09-01T02:31:50;3.57;;;2.07;;
41966;SDS011;27656;53.068;8.818;2022-09-01T02:34:18;2.37;;;1.53;;
41966;SDS011;27656;53.068;8.818;2022-09-01T02:36:47;1.80;;;1.10;;
41966;SDS011;27656;53.068;8.818;2022-09-01T02:39:19;1.83;;;1.33;;
41966;SDS011;27656;53.068;8.818;2022-09-01T02:41:48;3.27;;;1.60;;
41966;SDS011;27656;53.068;8.818;2022-09-01T02:44:16;3.07;;;1.33;;
41966;SDS011;27656;53.068;8.818;2022-09-01T02:46:48;2.77;;;1.70;;
41966;SDS011;27656;53.068;8.818;2022-09-01T02:49:17;3.70;;;1.50;;
41966;SDS011;27656;53.068;8.818;2022-09-01T02:51:47;3.00;;;1.37;;
41966;SDS011;27656;53.068;8.818;2022-09-01T02:54:15;3.67;;;1.60;;
41966;SDS011;27656;53.068;8.818;2022-09-01T02:56:43;2.80;;;1.60;;
41966;SDS011;27656;53.068;8.818;2022-09-01T02:59:13;4.33;;;1.50;;
41966;SDS011;27656;53.068;8.818;2022-09-01T03:01:41;4.20;;;2.37;;
41966;SDS011;27656;53.068;8.818;2022-09-01T03:04:08;3.73;;;1.50;;
41966;SDS011;27656;53.068;8.818;2022-09-01T03:06:37;2.90;;;1.33;;
41966;SDS011;27656;53.068;8.818;2022-09-01T03:09:05;1.63;;;1.30;;
41966;SDS011;27656;53.068;8.818;2022-09-01T03:11:37;3.60;;;1.40;;
41966;SDS011;27656;53.068;8.818;2022-09-01T03:14:05;4.87;;;1.93;;
41966;SDS011;27656;53.068;8.818;2022-09-01T03:16:33;3.97;;;1.50;;
41966;SDS011;27656;53.068;8.818;2022-09-01T03:19:02;2.30;;;1.63;;
41966;SDS011;27656;53.068;8.818;2022-09-01T03:21:32;1.87;;;1.67;;
41966;SDS011;27656;53.068;8.818;2022-09-01T03:23:58;2.60;;;1.50;;
41966;SDS011;27656;53.068;8.818;2022-09-01T03:26:28;3.90;;;1.87;;
41966;SDS011;27656;53.068;8.818;2022-09-01T03:28:55;3.40;;;1.57;;
41966;SDS011;27656;53.068;8.818;2022-09-01T03:31:22;2.33;;;1.60;;
41966;SDS011;27656;53.068;8.818;2022-09-01T03:33:56;3.37;;;1.93;;
41966;SDS011;27656;53.068;8.818;2022-09-01T03:36:23;3.30;;;1.83;;
41966;SDS011;27656;53.068;8.818;2022-09-01T03:38:51;3.20;;;1.77;;
41966;SDS011;27656;53.068;8.818;2022-09-01T03:41:19;2.27;;;1.77;;
41966;SDS011;27656;53.068;8.818;2022-09-01T03:43:48;4.57;;;1.90;;
41966;SDS011;27656;53.068;8.818;2022-09-01T03:46:16;3.10;;;1.70;;
41966;SDS011;27656;53.068;8.818;2022-09-01T03:48:47;4.43;;;1.80;;
41966;SDS011;27656;53.068;8.818;2022-09-01T03:51:20;2.60;;;1.80;;
41966;SDS011;27656;53.068;8.818;2022-09-01T03:53:51;2.40;;;1.93;;
41966;SDS011;27656;53.068;8.818;2022-09-01T03:56:26;1.70;;;1.60;;
41966;SDS011;27656;53.068;8.818;2022-09-01T03:58:54;1.73;;;1.50;;
41966;SDS011;27656;53.068;8.818;2022-09-01T04:01:23;3.90;;;1.67;;
41966;SDS011;27656;53.068;8.818;2022-09-01T04:03:51;5.07;;;1.80;;
41966;SDS011;27656;53.068;8.818;2022-09-01T04:06:18;2.70;;;1.90;;
41966;SDS011;27656;53.068;8.818;2022-09-01T04:08:45;2.47;;;1.90;;
41966;SDS011;27656;53.068;8.818;2022-09-01T04:11:14;4.37;;;2.00;;
41966;SDS011;27656;53.068;8.818;2022-09-01T04:13:44;7.27;;;1.90;;
41966;SDS011;27656;53.068;8.818;2022-09-01T04:16:26;2.10;;;1.90;;
41966;SDS011;27656;53.068;8.818;2022-09-01T04:19:12;3.90;;;2.00;;
41966;SDS011;27656;53.068;8.818;2022-09-01T04:21:45;2.90;;;1.97;;
41966;SDS011;27656;53.068;8.818;2022-09-01T04:24:12;4.47;;;2.07;;
41966;SDS011;27656;53.068;8.818;2022-09-01T04:26:40;4.17;;;2.07;;
41966;SDS011;27656;53.068;8.818;2022-09-01T04:29:07;5.07;;;2.00;;
41966;SDS011;27656;53.068;8.818;2022-09-01T04:31:36;5.17;;;2.03;;
41966;SDS011;27656;53.068;8.818;2022-09-01T04:34:04;4.20;;;2.00;;
41966;SDS011;27656;53.068;8.818;2022-09-01T04:36:39;2.37;;;1.97;;
41966;SDS011;27656;53.068;8.818;2022-09-01T04:39:07;2.60;;;1.90;;
41966;SDS011;27656;53.068;8.818;2022-09-01T04:41:38;2.23;;;1.90;;
41966;SDS011;27656;53.068;8.818;2022-09-01T04:44:06;2.63;;;1.50;;
41966;SDS011;27656;53.068;8.818;2022-09-01T04:46:35;4.87;;;1.70;;
41966;SDS011;27656;53.068;8.818;2022-09-01T04:49:05;4.17;;;2.20;;
41966;SDS011;27656;53.068;8.818;2022-09-01T04:51:39;2.73;;;1.87;;
41966;SDS011;27656;53.068;8.818;2022-09-01T04:54:07;3.90;;;2.50;;
41966;SDS011;27656;53.068;8.818;2022-09-01T04:56:39;2.83;;;1.90;;
41966;SDS011;27656;53.068;8.818;2022-09-01T04:59:08;2.73;;;2.00;;
41966;SDS011;27656;53.068;8.818;2022-09-01T05:01:36;5.17;;;2.00;;
41966;SDS011;27656;53.068;8.818;2022-09-01T05:04:09;4.90;;;2.47;;
41966;SDS011;27656;53.068;8.818;2022-09-01T05:06:39;9.60;;;2.33;;
41966;SDS011;27656;53.068;8.818;2022-09-01T05:09:07;3.63;;;2.00;;
41966;SDS011;27656;53.068;8.818;2022-09-01T05:11:38;6.30;;;2.00;;
41966;SDS011;27656;53.068;8.818;2022-09-01T05:14:06;4.37;;;1.90;;
41966;SDS011;27656;53.068;8.818;2022-09-01T05:16:33;5.63;;;2.10;;
41966;SDS011;27656;53.068;8.818;2022-09-01T05:19:00;4.10;;;2.00;;
41966;SDS011;27656;53.068;8.818;2022-09-01T05:21:27;4.70;;;1.70;;
41966;SDS011;27656;53.068;8.818;2022-09-01T05:23:56;5.60;;;2.03;;
41966;SDS011;27656;53.068;8.818;2022-09-01T05:26:24;4.30;;;1.80;;
41966;SDS011;27656;53.068;8.818;2022-09-01T05:28:57;5.33;;;2.00;;
41966;SDS011;27656;53.068;8.818;2022-09-01T05:31:25;4.63;;;2.83;;
41966;SDS011;27656;53.068;8.818;2022-09-01T05:33:53;4.30;;;2.10;;
41966;SDS011;27656;53.068;8.818;2022-09-01T05:36:21;6.10;;;2.20;;
41966;SDS011;27656;53.068;8.818;2022-09-01T05:38:49;2.60;;;1.90;;
41966;SDS011;27656;53.068;8.818;2022-09-01T05:41:17;3.10;;;2.10;;
41966;SDS011;27656;53.068;8.818;2022-09-01T05:43:45;3.67;;;2.30;;
41966;SDS011;27656;53.068;8.818;2022-09-01T05:46:14;3.17;;;2.10;;
41966;SDS011;27656;53.068;8.818;2022-09-01T05:48:42;4.60;;;2.00;;
41966;SDS011;27656;53.068;8.818;2022-09-01T05:51:10;3.43;;;1.80;;
41966;SDS011;27656;53.068;8.818;2022-09-01T05:54:00;3.20;;;1.83;;
41966;SDS011;27656;53.068;8.818;2022-09-01T05:56:28;5.10;;;2.07;;
41966;SDS011;27656;53.068;8.818;2022-09-01T05:58:55;4.47;;;2.00;;
41966;SDS011;27656;53.068;8.818;2022-09-01T06:01:43;5.63;;;2.30;;
41966;SDS011;27656;53.068;8.818;2022-09-01T06:04:15;3.73;;;1.80;;
41966;SDS011;27656;53.068;8.818;2022-09-01T06:06:43;3.07;;;2.17;;
41966;SDS011;27656;53.068;8.818;2022-09-01T06:09:37;1.73;;;1.63;;
41966;SDS011;27656;53.068;8.818;2022-09-01T06:12:08;4.83;;;1.80;;
41966;SDS011;27656;53.068;8.818;2022-09-01T06:14:44;3.57;;;1.70;;
41966;SDS011;27656;53.068;8.818;2022-09-01T06:17:14;3.87;;;1.60;;
41966;SDS011;27656;53.068;8.818;2022-09-01T06:19:50;4.43;;;1.83;;
41966;SDS011;27656;53.068;8.818;2022-09-01T06:22:19;2.63;;;1.90;;
41966;SDS011;27656;53.068;8.818;2022-09-01T06:24:45;4.23;;;1.67;;
41966;SDS011;27656;53.068;8.818;2022-09-01T06:27:20;3.73;;;1.70;;
41966;SDS011;27656;53.068;8.818;2022-09-01T06:29:47;4.00;;;1.60;;
41966;SDS011;27656;53.068;8.818;2022-09-01T06:32:21;3.97;;;1.80;;
41966;SDS011;27656;53.068;8.818;2022-09-01T06:34:51;3.00;;;1.60;;
41966;SDS011;27656;53.068;8.818;2022-09-01T06:37:17;4.20;;;1.90;;
41966;SDS011;27656;53.068;8.818;2022-09-01T06:39:48;2.70;;;1.50;;
41966;SDS011;27656;53.068;8.818;2022-09-01T06:42:16;3.10;;;1.40;;
41966;SDS011;27656;53.068;8.818;2022-09-01T06:44:43;2.00;;;1.63;;
41966;SDS011;27656;53.068;8.818;2022-09-01T06:47:11;5.17;;;1.67;;
41966;SDS011;27656;53.068;8.818;2022-09-01T06:49:37;2.40;;;1.50;;
41966;SDS011;27656;53.068;8.818;2022-09-01T06:52:05;4.90;;;1.60;;
41966;SDS011;27656;53.068;8.818;2022-09-01T06:54:33;6.03;;;1.90;;
41966;SDS011;27656;53.068;8.818;2022-09-01T06:57:01;7.23;;;1.60;;
41966;SDS011;27656;53.068;8.818;2022-09-01T06:59:48;5.43;;;1.83;;
41966;SDS011;27656;53.068;8.818;2022-09-01T07:02:17;5.13;;;1.60;;
41966;SDS011;27656;53.068;8.818;2022-09-01T07:04:49;2.50;;;1.50;;
41966;SDS011;27656;53.068;8.818;2022-09-01T07:07:17;3.20;;;1.63;;
41966;SDS011;27656;53.068;8.818;2022-09-01T07:10:04;5.63;;;1.60;;
41966;SDS011;27656;53.068;8.818;2022-09-01T07:12:51;3.70;;;1.50;;
41966;SDS011;27656;53.068;8.818;2022-09-01T07:15:39;3.13;;;1.70;;
41966;SDS011;27656;53.068;8.818;2022-09-01T07:18:27;2.30;;;1.40;;
41966;SDS011;27656;53.068;8.818;2022-09-01T07:20:55;2.77;;;1.40;;
41966;SDS011;27656;53.068;8.818;2022-09-01T07:23:42;4.20;;;1.67;;
41966;SDS011;27656;53.068;8.818;2022-09-01T07:26:29;4.67;;;1.50;;
41966;SDS011;27656;53.068;8.818;2022-09-01T07:28:56;3.73;;;1.40;;
41966;SDS011;27656;53.068;8.818;2022-09-01T07:31:31;2.83;;;1.40;;
41966;SDS011;27656;53.068;8.818;2022-09-01T07:34:23;1.20;;;1.00;;
41966;SDS011;27656;53.068;8.818;2022-09-01T07:37:06;2.43;;;1.10;;
41966;SDS011;27656;53.068;8.818;2022-09-01T07:39:53;5.20;;;1.40;;
41966;SDS011;27656;53.068;8.818;2022-09-01T07:42:21;1.83;;;1.20;;
41966;SDS011;27656;53.068;8.818;2022-09-01T07:45:08;2.40;;;1.27;;
41966;SDS011;27656;53.068;8.818;2022-09-01T07:47:53;4.47;;;1.20;;
41966;SDS011;27656;53.068;8.818;2022-09-01T07:50:21;3.83;;;1.37;;
41966;SDS011;27656;53.068;8.818;2022-09-01T07:53:09;2.07;;;1.30;;
41966;SDS011;27656;53.068;8.818;2022-09-01T07:55:40;4.37;;;1.10;;
41966;SDS011;27656;53.068;8.818;2022-09-01T07:58:09;5.33;;;1.00;;
41966;SDS011;27656;53.068;8.818;2022-09-01T08:00:37;3.27;;;0.80;;
41966;SDS011;27656;53.068;8.818;2022-09-01T08:03:05;3.23;;;0.90;;
41966;SDS011;27656;53.068;8.818;2022-09-01T08:05:31;3.87;;;1.00;;
41966;SDS011;27656;53.068;8.818;2022-09-01T08:07:58;3.13;;;0.90;;
41966;SDS011;27656;53.068;8.818;2022-09-01T08:10:26;1.97;;;0.90;;
41966;SDS011;27656;53.068;8.818;2022-09-01T08:12:52;3.20;;;1.00;;
41966;SDS011;27656;53.068;8.818;2022-09-01T08:15:22;1.90;;;0.90;;
41966;SDS011;27656;53.068;8.818;2022-09-01T08:18:09;2.40;;;0.83;;
41966;SDS011;27656;53.068;8.818;2022-09-01T08:20:40;2.97;;;0.80;;
41966;SDS011;27656;53.068;8.818;2022-09-01T08:23:12;1.67;;;0.83;;
41966;SDS011;27656;53.068;8.818;2022-09-01T08:25:41;1.43;;;0.80;;
41966;SDS011;27656;53.068;8.818;2022-09-01T08:28:09;0.80;;;0.70;;
41966;SDS011;27656;53.068;8.818;2022-09-01T08:30:37;3.87;;;0.90;;
41966;SDS011;27656;53.068;8.818;2022-09-01T08:33:05;1.10;;;0.77;;
41966;SDS011;27656;53.068;8.818;2022-09-01T08:35:39;2.23;;;0.70;;
41966;SDS011;27656;53.068;8.818;2022-09-01T08:38:08;4.10;;;0.90;;
41966;SDS011;27656;53.068;8.818;2022-09-01T08:40:35;1.63;;;0.70;;
41966;SDS011;27656;53.068;8.818;2022-09-01T08:45:51;5.57;;;0.80;;
41966;SDS011;27656;53.068;8.818;2022-09-01T08:48:41;1.47;;;0.77;;
41966;SDS011;27656;53.068;8.818;2022-09-01T08:57:32;4.77;;;0.90;;
41966;SDS011;27656;53.068;8.818;2022-09-01T09:00:00;3.00;;;0.60;;
41966;SDS011;27656;53.068;8.818;2022-09-01T09:10:59;4.07;;;0.70;;
41966;SDS011;27656;53.068;8.818;2022-09-01T09:16:15;2.63;;;0.87;;
41966;SDS011;27656;53.068;8.818;2022-09-01T09:18:51;1.20;;;0.60;;
41966;SDS011;27656;53.068;8.818;2022-09-01T09:21:24;1.23;;;0.70;;
41966;SDS011;27656;53.068;8.818;2022-09-01T09:24:16;1.87;;;0.70;;
41966;SDS011;27656;53.068;8.818;2022-09-01T09:26:51;2.87;;;0.80;;
41966;SDS011;27656;53.068;8.818;2022-09-01T09:29:20;1.07;;;0.70;;
41966;SDS011;27656;53.068;8.818;2022-09-01T09:31:48;1.33;;;0.83;;
41966;SDS011;27656;53.068;8.818;2022-09-01T09:34:35;1.67;;;0.80;;
41966;SDS011;27656;53.068;8.818;2022-09-01T09:40:12;2.73;;;0.73;;
41966;SDS011;27656;53.068;8.818;2022-09-01T09:45:36;1.33;;;0.50;;
41966;SDS011;27656;53.068;8.818;2022-09-01T09:48:09;2.67;;;0.80;;
41966;SDS011;27656;53.068;8.818;2022-09-01T09:50:38;1.70;;;0.60;;
41966;SDS011;27656;53.068;8.818;2022-09-01T09:53:11;2.43;;;0.53;;
41966;SDS011;27656;53.068;8.818;2022-09-01T09:58:38;2.33;;;0.70;;
41966;SDS011;27656;53.068;8.818;2022-09-01T10:03:47;0.70;;;0.50;;
41966;SDS011;27656;53.068;8.818;2022-09-01T10:12:00;2.80;;;0.70;;
41966;SDS011;27656;53.068;8.818;2022-09-01T10:14:29;2.10;;;0.60;;
41966;SDS011;27656;53.068;8.818;2022-09-01T10:17:23;0.80;;;0.60;;
41966;SDS011;27656;53.068;8.818;2022-09-01T10:19:56;2.00;;;0.50;;
41966;SDS011;27656;53.068;8.818;2022-09-01T10:22:32;3.50;;;0.80;;
41966;SDS011;27656;53.068;8.818;2022-09-01T10:25:00;1.13;;;0.60;;
41966;SDS011;27656;53.068;8.818;2022-09-01T10:27:32;2.87;;;0.70;;
41966;SDS011;27656;53.068;8.818;2022-09-01T10:30:04;0.97;;;0.50;;
41966;SDS011;27656;53.068;8.818;2022-09-01T10:32:55;0.70;;;0.53;;
41966;SDS011;27656;53.068;8.818;2022-09-01T10:35:33;3.30;;;0.53;;
41966;SDS011;27656;53.068;8.818;2022-09-01T10:38:07;0.70;;;0.60;;
41966;SDS011;27656;53.068;8.818;2022-09-01T10:43:51;1.20;;;0.70;;
41966;SDS011;27656;53.068;8.818;2022-09-01T10:48:41;2.23;;;0.60;;
41966;SDS011;27656;53.068;8.818;2022-09-01T10:53:52;1.73;;;0.53;;
41966;SDS011;27656;53.068;8.818;2022-09-01T11:13:05;0.87;;;0.50;;
41966;SDS011;27656;53.068;8.818;2022-09-01T11:15:41;1.87;;;0.50;;
41966;SDS011;27656;53.068;8.818;2022-09-01T11:18:14;0.90;;;0.50;;
41966;SDS011;27656;53.068;8.818;2022-09-01T11:20:44;0.40;;;0.40;;
41966;SDS011;27656;53.068;8.818;2022-09-01T11:23:24;0.60;;;0.60;;
41966;SDS011;27656;53.068;8.818;2022-09-01T11:25:58;4.63;;;0.70;;
41966;SDS011;27656;53.068;8.818;2022-09-01T11:28:48;3.37;;;0.70;;
41966;SDS011;27656;53.068;8.818;2022-09-01T11:44:39;1.00;;;0.57;;
41966;SDS011;27656;53.068;8.818;2022-09-01T11:47:21;0.70;;;0.40;;
41966;SDS011;27656;53.068;8.818;2022-09-01T11:49:59;1.47;;;0.40;;
41966;SDS011;27656;53.068;8.818;2022-09-01T11:52:31;0.47;;;0.40;;
41966;SDS011;27656;53.068;8.818;2022-09-01T11:55:01;2.30;;;0.70;;
41966;SDS011;27656;53.068;8.818;2022-09-01T11:57:31;3.47;;;0.60;;
41966;SDS011;27656;53.068;8.818;2022-09-01T12:00:00;1.90;;;0.60;;
41966;SDS011;27656;53.068;8.818;2022-09-01T12:02:31;1.03;;;0.53;;
41966;SDS011;27656;53.068;8.818;2022-09-01T12:05:02;3.17;;;0.70;;
41966;SDS011;27656;53.068;8.818;2022-09-01T12:10:14;0.80;;;0.60;;
41966;SDS011;27656;53.068;8.818;2022-09-01T12:12:45;1.50;;;0.73;;
41966;SDS011;27656;53.068;8.818;2022-09-01T12:17:51;3.53;;;1.10;;
41966;SDS011;27656;53.068;8.818;2022-09-01T12:20:30;2.13;;;0.87;;
41966;SDS011;27656;53.068;8.818;2022-09-01T12:22:58;2.20;;;0.70;;
41966;SDS011;27656;53.068;8.818;2022-09-01T12:25:32;1.10;;;0.90;;
41966;SDS011;27656;53.068;8.818;2022-09-01T12:27:59;1.27;;;0.70;;
41966;SDS011;27656;53.068;8.818;2022-09-01T12:30:32;3.60;;;0.80;;
41966;SDS011;27656;53.068;8.818;2022-09-01T12:33:05;2.60;;;0.70;;
41966;SDS011;27656;53.068;8.818;2022-09-01T12:35:49;0.50;;;0.40;;
41966;SDS011;27656;53.068;8.818;2022-09-01T12:38:25;2.00;;;0.77;;
41966;SDS011;27656;53.068;8.818;2022-09-01T12:40:55;0.90;;;0.60;;
41966;SDS011;27656;53.068;8.818;2022-09-01T12:43:27;1.00;;;0.73;;
41966;SDS011;27656;53.068;8.818;2022-09-01T12:45:53;1.17;;;0.60;;
41966;SDS011;27656;53.068;8.818;2022-09-01T12:48:30;2.90;;;0.73;;
41966;SDS011;27656;53.068;8.818;2022-09-01T12:51:03;2.10;;;0.70;;
41966;SDS011;27656;53.068;8.818;2022-09-01T12:53:34;1.60;;;0.70;;
41966;SDS011;27656;53.068;8.818;2022-09-01T12:56:03;3.80;;;0.60;;
41966;SDS011;27656;53.068;8.818;2022-09-01T12:58:40;0.90;;;0.50;;
41966;SDS011;27656;53.068;8.818;2022-09-01T13:01:21;1.30;;;0.57;;
41966;SDS011;27656;53.068;8.818;2022-09-01T13:04:10;0.93;;;0.77;;
41966;SDS011;27656;53.068;8.818;2022-09-01T13:06:37;3.00;;;0.70;;
41966;SDS011;27656;53.068;8.818;2022-09-01T13:09:04;1.60;;;0.50;;
41966;SDS011;27656;53.068;8.818;2022-09-01T13:11:30;1.37;;;1.00;;
41966;SDS011;27656;53.068;8.818;2022-09-01T13:14:19;2.53;;;0.63;;
41966;SDS011;27656;53.068;8.818;2022-09-01T13:16:46;1.50;;;0.60;;
41966;SDS011;27656;53.068;8.818;2022-09-01T13:19:12;0.90;;;0.60;;
41966;SDS011;27656;53.068;8.818;2022-09-01T13:21:51;1.70;;;0.70;;
41966;SDS011;27656;53.068;8.818;2022-09-01T13:24:18;1.33;;;0.83;;
41966;SDS011;27656;53.068;8.818;2022-09-01T13:26:44;1.83;;;0.80;;
41966;SDS011;27656;53.068;8.818;2022-09-01T13:29:31;2.20;;;0.60;;
41966;SDS011;27656;53.068;8.818;2022-09-01T13:31:57;3.47;;;0.97;;
41966;SDS011;27656;53.068;8.818;2022-09-01T13:34:44;1.63;;;0.60;;
41966;SDS011;27656;53.068;8.818;2022-09-01T13:37:11;1.97;;;0.60;;
41966;SDS011;27656;53.068;8.818;2022-09-01T13:39:37;1.50;;;0.80;;
41966;SDS011;27656;53.068;8.818;2022-09-01T13:42:03;2.03;;;0.80;;
41966;SDS011;27656;53.068;8.818;2022-09-01T13:44:30;3.43;;;1.10;;
41966;SDS011;27656;53.068;8.818;2022-09-01T13:46:57;2.80;;;0.70;;
41966;SDS011;27656;53.068;8.818;2022-09-01T13:49:25;1.70;;;0.80;;
41966;SDS011;27656;53.068;8.818;2022-09-01T13:52:12;2.87;;;0.90;;
41966;SDS011;27656;53.068;8.818;2022-09-01T13:54:38;2.80;;;0.80;;
41966;SDS011;27656;53.068;8.818;2022-09-01T13:57:05;5.00;;;0.83;;
41966;SDS011;27656;53.068;8.818;2022-09-01T13:59:31;2.37;;;0.90;;
41966;SDS011;27656;53.068;8.818;2022-09-01T14:01:58;2.17;;;0.80;;
41966;SDS011;27656;53.068;8.818;2022-09-01T14:04:26;1.90;;;0.73;;
41966;SDS011;27656;53.068;8.818;2022-09-01T14:06:53;0.73;;;0.60;;
41966;SDS011;27656;53.068;8.818;2022-09-01T14:09:20;1.43;;;0.67;;
41966;SDS011;27656;53.068;8.818;2022-09-01T14:11:46;0.93;;;0.60;;
41966;SDS011;27656;53.068;8.818;2022-09-01T14:14:13;1.83;;;0.77;;
41966;SDS011;27656;53.068;8.818;2022-09-01T14:16:39;0.97;;;0.50;;
41966;SDS011;27656;53.068;8.818;2022-09-01T14:19:06;1.57;;;0.70;;
41966;SDS011;27656;53.068;8.818;2022-09-01T14:21:32;0.93;;;0.67;;
41966;SDS011;27656;53.068;8.818;2022-09-01T14:23:59;4.30;;;0.57;;
41966;SDS011;27656;53.068;8.818;2022-09-01T14:26:26;1.23;;;0.63;;
41966;SDS011;27656;53.068;8.818;2022-09-01T14:28:53;1.97;;;0.87;;
41966;SDS011;27656;53.068;8.818;2022-09-01T14:31:20;0.70;;;0.50;;
41966;SDS011;27656;53.068;8.818;2022-09-01T14:33:46;2.63;;;0.53;;
41966;SDS011;27656;53.068;8.818;2022-09-01T14:36:18;1.57;;;0.80;;
41966;SDS011;27656;53.068;8.818;2022-09-01T14:38:47;1.00;;;0.60;;
41966;SDS011;27656;53.068;8.818;2022-09-01T14:41:14;1.07;;;0.50;;
41966;SDS011;27656;53.068;8.818;2022-09-01T14:43:41;1.07;;;0.60;;
41966;SDS011;27656;53.068;8.818;2022-09-01T14:46:09;1.30;;;0.60;;
41966;SDS011;27656;53.068;8.818;2022-09-01T14:48:36;0.97;;;0.60;;
41966;SDS011;27656;53.068;8.818;2022-09-01T14:51:03;3.83;;;0.60;;
41966;SDS011;27656;53.068;8.818;2022-09-01T14:53:31;2.43;;;0.60;;
41966;SDS011;27656;53.068;8.818;2022-09-01T14:55:58;1.27;;;0.70;;
41966;SDS011;27656;53.068;8.818;2022-09-01T14:58:26;2.43;;;0.80;;
41966;SDS011;27656;53.068;8.818;2022-09-01T15:00:54;2.23;;;0.60;;
41966;SDS011;27656;53.068;8.818;2022-09-01T15:03:32;1.93;;;0.50;;
41966;SDS011;27656;53.068;8.818;2022-09-01T15:05:59;2.23;;;0.67;;
41966;SDS011;27656;53.068;8.818;2022-09-01T15:08:26;0.70;;;0.50;;
41966;SDS011;27656;53.068;8.818;2022-09-01T15:10:52;2.10;;;0.60;;
41966;SDS011;27656;53.068;8.818;2022-09-01T15:13:19;1.00;;;0.60;;
41966;SDS011;27656;53.068;8.818;2022-09-01T15:15:46;4.57;;;0.80;;
41966;SDS011;27656;53.068;8.818;2022-09-01T15:18:12;1.47;;;0.60;;
41966;SDS011;27656;53.068;8.818;2022-09-01T15:20:42;1.57;;;0.67;;
41966;SDS011;27656;53.068;8.818;2022-09-01T15:23:12;1.43;;;0.70;;
41966;SDS011;27656;53.068;8.818;2022-09-01T15:25:43;1.47;;;0.83;;
41966;SDS011;27656;53.068;8.818;2022-09-01T15:28:10;2.47;;;0.60;;
41966;SDS011;27656;53.068;8.818;2022-09-01T15:30:37;4.23;;;1.20;;
41966;SDS011;27656;53.068;8.818;2022-09-01T15:33:05;1.63;;;0.60;;
41966;SDS011;27656;53.068;8.818;2022-09-01T15:35:35;2.70;;;0.50;;
41966;SDS011;27656;53.068;8.818;2022-09-01T15:38:02;2.73;;;1.03;;
41966;SDS011;27656;53.068;8.818;2022-09-01T15:40:30;0.90;;;0.50;;
41966;SDS011;27656;53.068;8.818;2022-09-01T15:42:57;0.73;;;0.43;;
41966;SDS011;27656;53.068;8.818;2022-09-01T15:45:24;2.27;;;0.60;;
41966;SDS011;27656;53.068;8.818;2022-09-01T15:47:51;1.47;;;0.70;;
41966;SDS011;27656;53.068;8.818;2022-09-01T15:50:19;1.27;;;0.60;;
41966;SDS011;27656;53.068;8.818;2022-09-01T15:55:23;0.80;;;0.40;;
41966;SDS011;27656;53.068;8.818;2022-09-01T15:57:51;1.77;;;0.63;;
41966;SDS011;27656;53.068;8.818;2022-09-01T16:00:19;0.80;;;0.60;;
41966;SDS011;27656;53.068;8.818;2022-09-01T16:02:49;0.80;;;0.70;;
41966;SDS011;27656;53.068;8.818;2022-09-01T16:05:16;1.23;;;0.60;;
41966;SDS011;27656;53.068;8.818;2022-09-01T16:07:43;0.63;;;0.57;;
41966;SDS011;27656;53.068;8.818;2022-09-01T16:10:12;2.57;;;0.60;;
41966;SDS011;27656;53.068;8.818;2022-09-01T16:12:40;2.67;;;0.60;;
41966;SDS011;27656;53.068;8.818;2022-09-01T16:15:10;1.20;;;0.60;;
41966;SDS011;27656;53.068;8.818;2022-09-01T16:20:13;1.37;;;0.73;;
41966;SDS011;27656;53.068;8.818;2022-09-01T16:25:24;3.37;;;0.70;;
41966;SDS011;27656;53.068;8.818;2022-09-01T16:27:56;4.63;;;0.80;;
41966;SDS011;27656;53.068;8.818;2022-09-01T16:30:26;2.03;;;0.80;;
41966;SDS011;27656;53.068;8.818;2022-09-01T16:32:58;2.43;;;0.50;;
41966;SDS011;27656;53.068;8.818;2022-09-01T16:35:43;1.03;;;0.60;;
41966;SDS011;27656;53.068;8.818;2022-09-01T16:38:34;1.67;;;0.70;;
41966;SDS011;27656;53.068;8.818;2022-09-01T16:43:52;0.80;;;0.70;;
41966;SDS011;27656;53.068;8.818;2022-09-01T16:46:36;2.43;;;0.67;;